Akinada Bridge — H9PN — position and weather

sailwx.info

Track history (hours):
 
Tides and Currents Weather Stations Pressure Air Temp Water Temp Dewpoint Dewpoint Depression Visibility Wind Speed Wind Dir Waves Ship Positions

Akinada Bridge

Last reported at 2018-Feb-17 00:39 UTC. Time now 2018-Feb-24 19:29 UTC.
Position N 36°26' E 014°40'.

Length 284.7 m; beam 40 m.

Type: Cargo ship. MMSI: 352675000.

Date/timePositionNaut miles runAvg speedWind from/ knotsBaromVisibWave heightAir tempDewpointWater temp
2018-Feb-17 00:39N 36°26' E 014°40'214.3
2018-Feb-17 00:30N 36°26' E 014°38'714.3
2018-Feb-17 00:00N 36°29' E 014°30'714.0
2018-Feb-16 23:30N 36°31' E 014°21'713.9
2018-Feb-16 23:00N 36°33' E 014°13'713.8
2018-Feb-16 22:30N 36°35' E 014°05'713.8
2018-Feb-16 22:00N 36°38' E 013°57'714.1
2018-Feb-16 21:30N 36°40' E 013°49'714.0
2018-Feb-16 21:00N 36°43' E 013°41'714.1
2018-Feb-16 20:31N 36°45' E 013°32'  
2018-Feb-14 03:09N 36°03' W 005°16'216.0
2018-Feb-14 03:00N 36°04' W 005°18'612.3
2018-Feb-14 02:30N 36°07' W 005°25'1 0.5
2018-Feb-14 00:40N 36°08' W 005°25'0 0.0
2018-Feb-14 00:25N 36°08' W 005°25'0 0.0
2018-Feb-14 00:00N 36°08' W 005°25'0 0.0
2018-Feb-13 23:30N 36°08' W 005°25'0 0.0
2018-Feb-13 23:00N 36°08' W 005°25'0 0.0
2018-Feb-13 22:30N 36°08' W 005°25'0 0.0
2018-Feb-13 22:00N 36°08' W 005°25'0 0.0
2018-Feb-13 21:30N 36°08' W 005°25'0 0.0
2018-Feb-13 21:00N 36°08' W 005°25'0 0.0
2018-Feb-13 20:30N 36°08' W 005°25'0 0.0
2018-Feb-13 20:00N 36°08' W 005°25'0 0.0
2018-Feb-13 19:31N 36°08' W 005°25'0 0.0
2018-Feb-13 19:00N 36°08' W 005°25'0 0.0
2018-Feb-13 18:25N 36°08' W 005°25'0 0.0
2018-Feb-13 18:00N 36°08' W 005°25'0 0.0
2018-Feb-13 17:30N 36°08' W 005°25'0 0.0
2018-Feb-13 17:00N 36°08' W 005°25'0 0.0
2018-Feb-13 16:30N 36°08' W 005°25'0 0.0
2018-Feb-13 16:00N 36°08' W 005°25'0 0.0
2018-Feb-13 15:30N 36°08' W 005°25'0 0.1
2018-Feb-13 15:00N 36°08' W 005°25'2 3.6
2018-Feb-13 14:29N 36°08' W 005°23'1 1.3
2018-Feb-13 14:00N 36°08' W 005°23'5 9.6
2018-Feb-13 13:30N 36°03' W 005°23'815.6
2018-Feb-13 13:00N 35°57' W 005°29'150 8.9
2018-Feb-12 20:15N 36°24' W 008°32'311.7
2018-Feb-12 20:00N 36°25' W 008°36'11210.4
2018-Feb-12 09:14N 37°58' W 009°53'311.8
2018-Feb-12 09:00N 38°01' W 009°54'612.0
2018-Feb-12 08:30N 38°07' W 009°56'612.1
2018-Feb-12 08:00N 38°12' W 009°58'612.1
2018-Feb-12 07:30N 38°18' W 009°59'612.1
2018-Feb-12 07:01N 38°24' W 010°01'611.8
2018-Feb-12 06:30N 38°30' W 010°03'611.8
2018-Feb-12 05:59N 38°36' W 010°05'612.1
2018-Feb-12 05:30N 38°41' W 010°06'612.3
2018-Feb-12 05:01N 38°47' W 010°07'612.2
2018-Feb-12 04:30N 38°54' W 010°07'611.9
2018-Feb-12 04:00N 38°60' W 010°07'611.8
2018-Feb-12 03:31N 39°05' W 010°07'611.7
2018-Feb-12 03:00N 39°11' W 010°06'611.6
2018-Feb-12 02:31N 39°17' W 010°06'611.7
2018-Feb-12 02:00N 39°23' W 010°06'611.6
2018-Feb-12 01:27N 39°29' W 010°06'  
2018-Feb-09 08:30N 49°58' W 002°54'4613.2
2018-Feb-09 05:00N 50°11' W 001°44'612.5
2018-Feb-09 04:30N 50°13' W 001°35'611.3
2018-Feb-09 04:00N 50°14' W 001°27'510.8
2018-Feb-09 03:30N 50°16' W 001°19'3610.3
2018-Feb-09 00:00N 50°26' W 000°24'611.2
2018-Feb-08 23:30N 50°28' W 000°16'611.3
2018-Feb-08 23:00N 50°29' W 000°07'611.8
2018-Feb-08 22:30N 50°30' E 000°02'612.2
2018-Feb-08 22:00N 50°32' E 000°11'612.4
2018-Feb-08 21:30N 50°34' E 000°20'612.5
2018-Feb-08 21:00N 50°36' E 000°30'612.4
2018-Feb-08 20:30N 50°38' E 000°39'1212.1
2018-Feb-08 19:30N 50°44' E 000°55'611.6
2018-Feb-08 19:00N 50°48' E 001°02'611.1
2018-Feb-08 18:30N 50°51' E 001°09'2110.4
2018-Feb-08 16:30N 51°05' E 001°34'10 9.9
2018-Feb-08 15:30N 51°03' E 001°50'1313.0
2018-Feb-08 14:30N 51°02' E 002°10'2 0.5
2018-Feb-08 11:30N 51°00' E 002°11'0 0.0
2018-Feb-08 10:00N 51°00' E 002°11'0 0.0
2018-Feb-08 03:00N 51°00' E 002°11'0 0.0
2018-Feb-08 01:31N 51°00' E 002°11'0 0.0
2018-Feb-08 01:00N 51°00' E 002°11'0 0.0
2018-Feb-08 00:31N 51°00' E 002°11'0 0.0
2018-Feb-08 00:00N 51°00' E 002°11'0 0.0
2018-Feb-07 23:30N 51°00' E 002°11'0 0.0
2018-Feb-07 22:58N 51°00' E 002°11'0 0.0
2018-Feb-07 22:30N 51°00' E 002°11'0 0.0
2018-Feb-07 21:59N 51°00' E 002°11'0 0.0
2018-Feb-07 21:31N 51°00' E 002°11'0 0.0
2018-Feb-07 09:30N 51°00' E 002°11'0 0.0
2018-Feb-07 08:58N 51°00' E 002°11'0 0.0
2018-Feb-07 08:30N 51°00' E 002°11'0 0.0
2018-Feb-07 07:30N 51°00' E 002°11'0 0.0
2018-Feb-07 07:00N 51°00' E 002°11'0 0.0
2018-Feb-07 06:30N 51°00' E 002°11'0 0.0
2018-Feb-07 06:00N 51°00' E 002°11'0 0.0
2018-Feb-07 05:30N 51°00' E 002°11'0 0.0
2018-Feb-07 05:00N 51°00' E 002°11'0 0.0
2018-Feb-07 04:30N 51°00' E 002°11'0 0.0
2018-Feb-07 04:00N 51°00' E 002°11'0 0.0
2018-Feb-07 03:30N 51°00' E 002°11'0 0.0
2018-Feb-07 02:59N 51°00' E 002°11'0 0.0
2018-Feb-07 02:30N 51°00' E 002°11'0 0.0
2018-Feb-07 01:30N 51°00' E 002°11'0 0.0
2018-Feb-07 01:00N 51°00' E 002°11'  
Track history (hours):
 
Tides and Currents Weather Stations Pressure Air Temp Water Temp Dewpoint Dewpoint Depression Visibility Wind Speed Wind Dir Waves Ship Positions

Akinada Bridge

Last reported at 2018-Feb-17 00:39 UTC. Time now 2018-Feb-24 19:29 UTC.
Position N 36°26' E 014°40'.

Length 284.7 m; beam 40 m.

Type: Cargo ship. MMSI: 352675000.

Date/timePositionNaut miles runAvg speedWind from/ knotsBaromVisibWave heightAir tempDewpointWater temp
2018-Feb-17 00:39N 36°26' E 014°40'214.3
2018-Feb-17 00:30N 36°26' E 014°38'714.3
2018-Feb-17 00:00N 36°29' E 014°30'714.0
2018-Feb-16 23:30N 36°31' E 014°21'713.9
2018-Feb-16 23:00N 36°33' E 014°13'713.8
2018-Feb-16 22:30N 36°35' E 014°05'713.8
2018-Feb-16 22:00N 36°38' E 013°57'714.1
2018-Feb-16 21:30N 36°40' E 013°49'714.0
2018-Feb-16 21:00N 36°43' E 013°41'714.1
2018-Feb-16 20:31N 36°45' E 013°32'  
2018-Feb-14 03:09N 36°03' W 005°16'216.0
2018-Feb-14 03:00N 36°04' W 005°18'612.3
2018-Feb-14 02:30N 36°07' W 005°25'1 0.5
2018-Feb-14 00:40N 36°08' W 005°25'0 0.0
2018-Feb-14 00:25N 36°08' W 005°25'0 0.0
2018-Feb-14 00:00N 36°08' W 005°25'0 0.0
2018-Feb-13 23:30N 36°08' W 005°25'0 0.0
2018-Feb-13 23:00N 36°08' W 005°25'0 0.0
2018-Feb-13 22:30N 36°08' W 005°25'0 0.0
2018-Feb-13 22:00N 36°08' W 005°25'0 0.0
2018-Feb-13 21:30N 36°08' W 005°25'0 0.0
2018-Feb-13 21:00N 36°08' W 005°25'0 0.0
2018-Feb-13 20:30N 36°08' W 005°25'0 0.0
2018-Feb-13 20:00N 36°08' W 005°25'0 0.0
2018-Feb-13 19:31N 36°08' W 005°25'0 0.0
2018-Feb-13 19:00N 36°08' W 005°25'0 0.0
2018-Feb-13 18:25N 36°08' W 005°25'0 0.0
2018-Feb-13 18:00N 36°08' W 005°25'0 0.0
2018-Feb-13 17:30N 36°08' W 005°25'0 0.0
2018-Feb-13 17:00N 36°08' W 005°25'0 0.0
2018-Feb-13 16:30N 36°08' W 005°25'0 0.0
2018-Feb-13 16:00N 36°08' W 005°25'0 0.0
2018-Feb-13 15:30N 36°08' W 005°25'0 0.1
2018-Feb-13 15:00N 36°08' W 005°25'2 3.6
2018-Feb-13 14:29N 36°08' W 005°23'1 1.3
2018-Feb-13 14:00N 36°08' W 005°23'5 9.6
2018-Feb-13 13:30N 36°03' W 005°23'815.6
2018-Feb-13 13:00N 35°57' W 005°29'150 8.9
2018-Feb-12 20:15N 36°24' W 008°32'311.7
2018-Feb-12 20:00N 36°25' W 008°36'11210.4
2018-Feb-12 09:14N 37°58' W 009°53'311.8
2018-Feb-12 09:00N 38°01' W 009°54'612.0
2018-Feb-12 08:30N 38°07' W 009°56'612.1
2018-Feb-12 08:00N 38°12' W 009°58'612.1
2018-Feb-12 07:30N 38°18' W 009°59'612.1
2018-Feb-12 07:01N 38°24' W 010°01'611.8
2018-Feb-12 06:30N 38°30' W 010°03'611.8
2018-Feb-12 05:59N 38°36' W 010°05'612.1
2018-Feb-12 05:30N 38°41' W 010°06'612.3
2018-Feb-12 05:01N 38°47' W 010°07'612.2
2018-Feb-12 04:30N 38°54' W 010°07'611.9
2018-Feb-12 04:00N 38°60' W 010°07'611.8
2018-Feb-12 03:31N 39°05' W 010°07'611.7
2018-Feb-12 03:00N 39°11' W 010°06'611.6
2018-Feb-12 02:31N 39°17' W 010°06'611.7
2018-Feb-12 02:00N 39°23' W 010°06'611.6
2018-Feb-12 01:27N 39°29' W 010°06'  
2018-Feb-09 08:30N 49°58' W 002°54'4613.2
2018-Feb-09 05:00N 50°11' W 001°44'612.5
2018-Feb-09 04:30N 50°13' W 001°35'611.3
2018-Feb-09 04:00N 50°14' W 001°27'510.8
2018-Feb-09 03:30N 50°16' W 001°19'3610.3
2018-Feb-09 00:00N 50°26' W 000°24'611.2
2018-Feb-08 23:30N 50°28' W 000°16'611.3
2018-Feb-08 23:00N 50°29' W 000°07'611.8
2018-Feb-08 22:30N 50°30' E 000°02'612.2
2018-Feb-08 22:00N 50°32' E 000°11'612.4
2018-Feb-08 21:30N 50°34' E 000°20'612.5
2018-Feb-08 21:00N 50°36' E 000°30'612.4
2018-Feb-08 20:30N 50°38' E 000°39'1212.1
2018-Feb-08 19:30N 50°44' E 000°55'611.6
2018-Feb-08 19:00N 50°48' E 001°02'611.1
2018-Feb-08 18:30N 50°51' E 001°09'2110.4
2018-Feb-08 16:30N 51°05' E 001°34'10 9.9
2018-Feb-08 15:30N 51°03' E 001°50'1313.0
2018-Feb-08 14:30N 51°02' E 002°10'2 0.5
2018-Feb-08 11:30N 51°00' E 002°11'0 0.0
2018-Feb-08 10:00N 51°00' E 002°11'0 0.0
2018-Feb-08 03:00N 51°00' E 002°11'0 0.0
2018-Feb-08 01:31N 51°00' E 002°11'0 0.0
2018-Feb-08 01:00N 51°00' E 002°11'0 0.0
2018-Feb-08 00:31N 51°00' E 002°11'0 0.0
2018-Feb-08 00:00N 51°00' E 002°11'0 0.0
2018-Feb-07 23:30N 51°00' E 002°11'0 0.0
2018-Feb-07 22:58N 51°00' E 002°11'0 0.0
2018-Feb-07 22:30N 51°00' E 002°11'0 0.0
2018-Feb-07 21:59N 51°00' E 002°11'0 0.0
2018-Feb-07 21:31N 51°00' E 002°11'0 0.0
2018-Feb-07 09:30N 51°00' E 002°11'0 0.0
2018-Feb-07 08:58N 51°00' E 002°11'0 0.0
2018-Feb-07 08:30N 51°00' E 002°11'0 0.0
2018-Feb-07 07:30N 51°00' E 002°11'0 0.0
2018-Feb-07 07:00N 51°00' E 002°11'0 0.0
2018-Feb-07 06:30N 51°00' E 002°11'0 0.0
2018-Feb-07 06:00N 51°00' E 002°11'0 0.0
2018-Feb-07 05:30N 51°00' E 002°11'0 0.0
2018-Feb-07 05:00N 51°00' E 002°11'0 0.0
2018-Feb-07 04:30N 51°00' E 002°11'0 0.0
2018-Feb-07 04:00N 51°00' E 002°11'0 0.0
2018-Feb-07 03:30N 51°00' E 002°11'0 0.0
2018-Feb-07 02:59N 51°00' E 002°11'0 0.0
2018-Feb-07 02:30N 51°00' E 002°11'0 0.0
2018-Feb-07 01:30N 51°00' E 002°11'0 0.0
2018-Feb-07 01:00N 51°00' E 002°11'  

Dump ship's entire track history